createdAt,value
2019-02-23T00:01:19.813Z,-1.40
2019-02-23T00:04:24.067Z,-1.40
2019-02-23T00:07:28.279Z,-1.50
2019-02-23T00:10:32.473Z,-1.50
2019-02-23T00:13:36.775Z,-1.50
2019-02-23T00:16:41.050Z,-1.50
2019-02-23T00:19:45.432Z,-1.50
2019-02-23T00:22:49.762Z,-1.50
2019-02-23T00:25:54.144Z,-1.50
2019-02-23T00:28:58.408Z,-1.50
2019-02-23T00:32:02.708Z,-1.50
2019-02-23T00:35:06.962Z,-1.50
2019-02-23T00:38:11.653Z,-1.60
2019-02-23T00:41:15.998Z,-1.60
2019-02-23T00:44:20.356Z,-1.60
2019-02-23T00:47:26.332Z,-1.60
2019-02-23T00:50:30.725Z,-1.60
2019-02-23T00:53:35.097Z,-1.60
2019-02-23T00:56:39.380Z,-1.60
2019-02-23T00:59:43.627Z,-1.60
2019-02-23T01:02:48.035Z,-1.60
2019-02-23T01:05:52.383Z,-1.70
2019-02-23T01:08:56.691Z,-1.60
2019-02-23T01:12:01.015Z,-1.70
2019-02-23T01:15:05.751Z,-1.70
2019-02-23T01:18:09.932Z,-1.70
2019-02-23T01:21:14.158Z,-1.70
2019-02-23T01:24:18.559Z,-1.70
2019-02-23T01:27:23.749Z,-1.70
2019-02-23T01:30:27.942Z,-1.70
2019-02-23T01:33:32.330Z,-1.80
2019-02-23T01:36:36.657Z,-1.80
2019-02-23T01:39:41.165Z,-1.80
2019-02-23T01:42:45.448Z,-1.80
2019-02-23T01:45:49.828Z,-1.80
2019-02-23T01:48:54.146Z,-1.80
2019-02-23T01:51:58.578Z,-1.80
2019-02-23T01:55:03.001Z,-1.80
2019-02-23T01:58:07.286Z,-1.80
2019-02-23T02:01:12.165Z,-1.80
2019-02-23T02:04:16.540Z,-1.90
2019-02-23T02:07:20.883Z,-1.90
2019-02-23T02:10:25.368Z,-1.90
2019-02-23T02:13:29.621Z,-1.90
2019-02-23T02:16:34.123Z,-1.90
2019-02-23T02:19:38.473Z,-1.90
2019-02-23T02:22:42.835Z,-2.00
2019-02-23T02:25:47.158Z,-2.00
2019-02-23T02:28:51.519Z,-2.00
2019-02-23T02:31:55.710Z,-2.00
2019-02-23T02:35:00.310Z,-2.00
2019-02-23T02:38:04.687Z,-2.00
2019-02-23T02:41:09.149Z,-2.00
2019-02-23T02:44:13.354Z,-2.00
2019-02-23T02:47:17.649Z,-2.00
2019-02-23T02:50:24.552Z,-2.00
2019-02-23T02:53:27.924Z,-2.00
2019-02-23T02:56:32.300Z,-2.10
2019-02-23T02:59:36.713Z,-2.10
2019-02-23T03:02:40.968Z,-2.10
2019-02-23T03:05:45.271Z,-2.10
2019-02-23T03:08:49.557Z,-2.10
2019-02-23T03:11:54.032Z,-2.10
2019-02-23T03:14:58.302Z,-2.10
2019-02-23T03:18:02.668Z,-2.20
2019-02-23T03:21:06.913Z,-2.10
2019-02-23T03:24:11.136Z,-2.20
2019-02-23T03:27:15.520Z,-2.20
2019-02-23T03:30:19.811Z,-2.20
2019-02-23T03:33:24.135Z,-2.20
2019-02-23T03:36:28.447Z,-2.20
2019-02-23T03:39:32.714Z,-2.20
2019-02-23T03:42:37.228Z,-2.20
2019-02-23T03:45:41.490Z,-2.20
2019-02-23T03:48:45.799Z,-2.30
2019-02-23T03:51:50.072Z,-2.30
2019-02-23T03:54:54.353Z,-2.30
2019-02-23T03:57:58.647Z,-2.30
2019-02-23T04:01:02.954Z,-2.30
2019-02-23T04:04:07.201Z,-2.30
2019-02-23T04:07:11.502Z,-2.30
2019-02-23T04:10:15.778Z,-2.30
2019-02-23T04:13:20.185Z,-2.40
2019-02-23T04:16:24.410Z,-2.40
2019-02-23T04:19:28.688Z,-2.40
2019-02-23T04:22:32.861Z,-2.40
2019-02-23T04:25:37.087Z,-2.40
2019-02-23T04:28:42.899Z,-2.40
2019-02-23T04:31:47.257Z,-2.40
2019-02-23T04:34:51.501Z,-2.40
2019-02-23T04:37:56.186Z,-2.40
2019-02-23T04:41:00.435Z,-2.40
2019-02-23T04:44:04.792Z,-2.50
2019-02-23T04:47:09.168Z,-2.50
2019-02-23T04:50:13.550Z,-2.50
2019-02-23T04:53:17.813Z,-2.50
2019-02-23T04:56:22.032Z,-2.50
2019-02-23T04:59:26.420Z,-2.50
2019-02-23T05:02:30.628Z,-2.50
2019-02-23T05:05:34.904Z,-2.50
2019-02-23T05:08:39.269Z,-2.50
2019-02-23T05:11:43.536Z,-2.60
2019-02-23T05:14:48.636Z,-2.60
2019-02-23T05:17:55.495Z,-2.60
2019-02-23T05:20:58.984Z,-2.60
2019-02-23T05:24:03.263Z,-2.70
2019-02-23T05:27:07.682Z,-2.70
2019-02-23T05:30:12.673Z,-2.70
2019-02-23T05:33:16.940Z,-2.70
2019-02-23T05:36:21.123Z,-2.70
2019-02-23T05:39:25.459Z,-2.70
2019-02-23T05:42:29.744Z,-2.70
2019-02-23T05:45:34.073Z,-2.70
2019-02-23T05:48:38.393Z,-2.70
2019-02-23T05:51:42.781Z,-2.80
2019-02-23T05:54:47.121Z,-2.80
2019-02-23T05:57:51.432Z,-2.80
2019-02-23T06:00:55.822Z,-2.80
2019-02-23T06:04:00.138Z,-2.80
2019-02-23T06:07:04.503Z,-2.80
2019-02-23T06:10:10.309Z,-2.70
2019-02-23T06:13:14.649Z,-2.70
2019-02-23T06:16:18.879Z,-2.70
2019-02-23T06:19:23.151Z,-2.70
2019-02-23T06:22:27.401Z,-2.70
2019-02-23T06:25:31.766Z,-2.70
2019-02-23T06:28:36.139Z,-2.70
2019-02-23T06:31:40.478Z,-2.60
2019-02-23T06:34:44.770Z,-2.60
2019-02-23T06:37:49.198Z,-2.60
2019-02-23T06:40:53.518Z,-2.60
2019-02-23T06:43:57.895Z,-2.60
2019-02-23T06:47:02.515Z,-2.60
2019-02-23T06:50:07.135Z,-2.60
2019-02-23T06:53:11.544Z,-2.50
2019-02-23T06:56:15.809Z,-2.50
2019-02-23T06:59:20.019Z,-2.50
2019-02-23T07:02:24.351Z,-2.40
2019-02-23T07:05:28.660Z,-2.50
2019-02-23T07:08:32.964Z,-2.40
2019-02-23T07:11:37.323Z,-2.40
2019-02-23T07:14:41.589Z,-2.30
2019-02-23T07:17:46.155Z,-2.30
2019-02-23T07:20:50.785Z,-2.20
2019-02-23T07:23:55.183Z,-2.20
2019-02-23T07:26:59.588Z,-2.10
2019-02-23T07:30:04.187Z,-2.10
2019-02-23T07:33:10.188Z,-2.00
2019-02-23T07:36:14.646Z,-1.90
2019-02-23T07:39:19.096Z,-1.80
2019-02-23T07:42:23.460Z,-1.70
2019-02-23T07:45:27.816Z,-1.70
2019-02-23T07:48:32.052Z,-1.60
2019-02-23T07:51:36.320Z,-1.50
2019-02-23T07:54:40.647Z,-1.50
2019-02-23T07:57:44.936Z,-1.40
2019-02-23T08:00:49.391Z,-1.30
2019-02-23T08:03:53.794Z,-1.30
2019-02-23T08:06:58.155Z,-1.20
2019-02-23T08:10:02.360Z,-1.20
2019-02-23T08:13:06.798Z,-1.10
2019-02-23T08:16:11.145Z,-1.10
2019-02-23T08:19:15.436Z,-1.00
2019-02-23T08:22:22.240Z,-1.00
2019-02-23T08:25:26.654Z,-0.80
2019-02-23T08:28:30.984Z,-0.70
2019-02-23T08:31:35.510Z,-0.70
2019-02-23T08:34:40.020Z,-0.60
2019-02-23T08:37:44.338Z,-0.50
2019-02-23T08:40:48.679Z,-0.40
2019-02-23T08:43:52.914Z,-0.40
2019-02-23T08:46:57.140Z,-0.40
2019-02-23T08:50:01.799Z,-0.40
2019-02-23T08:53:07.980Z,-0.30
2019-02-23T08:56:12.275Z,-0.20
2019-02-23T08:59:16.607Z,-0.10
2019-02-23T09:02:21.026Z,0.00
2019-02-23T09:05:25.368Z,0.00
2019-02-23T09:08:29.710Z,0.10
2019-02-23T09:11:34.067Z,0.10
2019-02-23T09:14:38.376Z,0.20
2019-02-23T09:17:42.717Z,0.20
2019-02-23T09:20:47.046Z,0.30
2019-02-23T09:23:51.396Z,0.40
2019-02-23T09:26:56.012Z,0.40
2019-02-23T09:30:00.331Z,0.40
2019-02-23T09:33:04.687Z,0.50
2019-02-23T09:36:09.072Z,0.50
2019-02-23T09:39:13.449Z,0.50
2019-02-23T09:42:17.806Z,0.60
2019-02-23T09:45:22.166Z,0.70
2019-02-23T09:48:26.596Z,0.80
2019-02-23T09:51:30.908Z,0.90
2019-02-23T09:54:35.120Z,1.00
2019-02-23T09:57:39.442Z,1.10
2019-02-23T10:00:43.783Z,1.10
2019-02-23T10:03:48.152Z,1.30
2019-02-23T10:06:52.474Z,1.30
2019-02-23T10:09:56.713Z,1.40
2019-02-23T10:13:01.044Z,1.50
2019-02-23T10:16:05.307Z,1.60
2019-02-23T10:19:09.566Z,1.80
2019-02-23T10:22:13.946Z,1.90
2019-02-23T10:25:18.597Z,2.00
2019-02-23T10:28:22.934Z,2.10
2019-02-23T10:31:27.175Z,2.20
2019-02-23T10:34:31.404Z,2.20
2019-02-23T10:37:35.718Z,2.10
2019-02-23T10:40:40.005Z,2.20
2019-02-23T10:43:44.382Z,2.30
2019-02-23T10:46:48.740Z,2.40
2019-02-23T10:49:53.072Z,2.50
2019-02-23T10:52:57.498Z,2.60
2019-02-23T10:56:01.860Z,2.70
2019-02-23T10:59:06.161Z,2.70
2019-02-23T11:02:10.438Z,2.80
2019-02-23T11:05:15.321Z,2.80
2019-02-23T11:08:19.713Z,2.80
2019-02-23T11:11:24.034Z,2.90
2019-02-23T11:14:28.375Z,3.00
2019-02-23T11:17:32.676Z,3.10
2019-02-23T11:20:37.066Z,3.30
2019-02-23T11:23:44.549Z,3.50
2019-02-23T11:26:50.519Z,3.70
2019-02-23T11:29:54.842Z,3.90
2019-02-23T11:32:59.091Z,4.10
2019-02-23T11:36:03.504Z,4.30
2019-02-23T11:39:07.803Z,4.50
2019-02-23T11:42:12.126Z,4.70
2019-02-23T11:45:16.452Z,4.80
2019-02-23T11:48:20.751Z,4.90
2019-02-23T11:51:25.021Z,5.00
2019-02-23T11:54:29.387Z,5.20
2019-02-23T11:57:34.551Z,5.30
2019-02-23T12:00:38.873Z,5.50
2019-02-23T12:03:43.119Z,5.50
2019-02-23T12:06:47.337Z,5.60
2019-02-23T12:09:51.672Z,5.60
2019-02-23T12:12:55.882Z,5.60
2019-02-23T12:16:00.223Z,5.50
2019-02-23T12:19:04.588Z,5.40
2019-02-23T12:22:12.338Z,5.40
2019-02-23T12:25:16.248Z,5.30
2019-02-23T12:28:20.733Z,5.30
2019-02-23T12:31:25.059Z,5.30
2019-02-23T12:34:29.339Z,5.30
2019-02-23T12:37:33.699Z,4.80
2019-02-23T12:40:37.995Z,4.80
2019-02-23T12:43:42.287Z,4.90
2019-02-23T12:46:46.645Z,4.90
2019-02-23T12:49:51.025Z,4.90
2019-02-23T12:52:55.292Z,4.90
2019-02-23T12:55:59.586Z,4.40
2019-02-23T12:59:04.182Z,4.40
2019-02-23T13:02:08.560Z,4.40
2019-02-23T13:05:12.408Z,4.40
2019-02-23T13:08:16.770Z,4.50
2019-02-23T13:11:21.156Z,4.50
2019-02-23T13:14:48.800Z,4.60
2019-02-23T13:18:46.153Z,4.60
2019-02-23T13:22:21.934Z,4.70
2019-02-23T13:26:04.850Z,4.90
2019-02-23T13:29:44.523Z,5.00
2019-02-23T13:33:17.123Z,5.10
2019-02-23T13:36:41.826Z,5.20
2019-02-23T13:40:39.389Z,5.30
2019-02-23T13:44:06.571Z,5.40
2019-02-23T13:47:25.667Z,5.50
2019-02-23T13:51:01.385Z,5.60
2019-02-23T13:54:39.147Z,5.60
2019-02-23T13:58:33.377Z,5.80
2019-02-23T14:02:15.113Z,5.90
2019-02-23T14:05:43.929Z,5.90
2019-02-23T14:09:29.615Z,5.90
2019-02-23T14:13:16.749Z,5.90
2019-02-23T14:16:43.439Z,5.90
2019-02-23T14:20:11.824Z,5.90
2019-02-23T14:23:55.080Z,5.90
2019-02-23T14:27:29.191Z,5.90
2019-02-23T14:31:29.258Z,5.80
2019-02-23T14:35:21.350Z,5.60
2019-02-23T14:39:04.246Z,5.60
2019-02-23T14:42:22.777Z,5.50
2019-02-23T14:45:56.971Z,5.50
2019-02-23T14:49:36.017Z,5.50
2019-02-23T14:53:39.576Z,5.50
2019-02-23T14:57:37.195Z,5.30
2019-02-23T15:01:04.924Z,5.20
2019-02-23T15:05:08.352Z,5.20
2019-02-23T15:08:55.708Z,5.00
2019-02-23T15:12:14.707Z,4.60
2019-02-23T15:16:16.859Z,4.40
2019-02-23T15:19:50.763Z,4.20
2019-02-23T15:23:16.499Z,4.00
2019-02-23T15:27:00.853Z,3.70
2019-02-23T15:31:16.824Z,3.40
2019-02-23T15:34:41.451Z,3.30
2019-02-23T15:38:14.164Z,2.90
2019-02-23T15:41:57.766Z,2.70
2019-02-23T15:45:55.474Z,2.30
2019-02-23T15:49:31.086Z,2.30
2019-02-23T15:52:35.466Z,2.20
2019-02-23T15:55:39.857Z,2.10
2019-02-23T15:58:44.222Z,2.10
2019-02-23T16:01:49.983Z,2.00
2019-02-23T16:04:54.280Z,1.90
2019-02-23T16:07:58.604Z,1.70
2019-02-23T16:11:02.971Z,1.70
2019-02-23T16:14:16.696Z,1.60
2019-02-23T16:17:21.081Z,1.60
2019-02-23T16:20:25.742Z,1.50
2019-02-23T16:23:35.299Z,1.50
2019-02-23T16:26:36.239Z,1.50
2019-02-23T16:29:40.623Z,1.30
2019-02-23T16:32:45.010Z,1.10
2019-02-23T16:35:49.561Z,1.10
2019-02-23T16:38:53.933Z,1.10
2019-02-23T16:41:58.270Z,1.00
2019-02-23T16:45:02.681Z,1.10
2019-02-23T16:48:07.055Z,1.10
2019-02-23T16:51:11.432Z,1.10
2019-02-23T16:54:15.769Z,1.20
2019-02-23T16:57:20.190Z,1.20
2019-02-23T17:00:24.474Z,1.20
2019-02-23T17:03:28.881Z,1.20
2019-02-23T17:06:33.365Z,1.20
2019-02-23T17:09:37.697Z,1.20
2019-02-23T17:12:42.060Z,1.20
2019-02-23T17:15:46.289Z,1.20
2019-02-23T17:18:50.637Z,1.20
2019-02-23T17:21:54.952Z,1.20
2019-02-23T17:24:59.290Z,1.20
2019-02-23T17:28:06.712Z,1.20
2019-02-23T17:31:09.610Z,1.20
2019-02-23T17:34:14.030Z,1.10
2019-02-23T17:37:18.418Z,1.10
2019-02-23T17:40:22.821Z,1.10
2019-02-23T17:43:28.784Z,1.10
2019-02-23T17:46:33.409Z,1.10
2019-02-23T17:49:38.009Z,1.00
2019-02-23T17:52:42.628Z,1.00
2019-02-23T17:55:46.991Z,1.00
2019-02-23T17:58:51.413Z,1.00
2019-02-23T18:01:55.752Z,1.00
2019-02-23T18:05:00.130Z,1.00
2019-02-23T18:08:04.613Z,1.00
2019-02-23T18:11:08.930Z,1.00
2019-02-23T18:14:14.361Z,1.00
2019-02-23T18:17:18.784Z,1.00
2019-02-23T18:20:23.486Z,1.00
2019-02-23T18:23:27.882Z,1.00
2019-02-23T18:26:32.511Z,1.00
2019-02-23T18:29:40.474Z,1.00
2019-02-23T18:32:44.990Z,1.00
2019-02-23T18:35:53.856Z,1.00
2019-02-23T18:38:58.421Z,1.00
2019-02-23T18:42:04.544Z,1.00
2019-02-23T18:45:09.003Z,0.90
2019-02-23T18:48:13.934Z,0.90
2019-02-23T18:51:18.271Z,0.90
2019-02-23T18:54:22.785Z,0.90
2019-02-23T18:57:27.368Z,0.80
2019-02-23T19:00:31.675Z,0.80
2019-02-23T19:03:36.128Z,0.80
2019-02-23T19:06:40.947Z,0.80
2019-02-23T19:09:45.948Z,0.70
2019-02-23T19:12:51.760Z,0.60
2019-02-23T19:15:56.307Z,0.60
2019-02-23T19:19:00.728Z,0.50
2019-02-23T19:22:05.140Z,0.50
2019-02-23T19:25:10.216Z,0.40
2019-02-23T19:28:14.593Z,0.40
2019-02-23T19:31:19.015Z,0.30
2019-02-23T19:34:23.443Z,0.30
2019-02-23T19:37:28.779Z,0.20
2019-02-23T19:40:33.367Z,0.20
2019-02-23T19:43:37.790Z,0.10
2019-02-23T19:46:46.992Z,0.10
2019-02-23T19:49:54.041Z,0.00
2019-02-23T19:52:58.984Z,0.00
2019-02-23T19:56:03.374Z,0.00
2019-02-23T19:59:07.755Z,-0.10
2019-02-23T20:02:12.394Z,-0.20
2019-02-23T20:05:16.783Z,-0.20
2019-02-23T20:08:21.192Z,-0.20
2019-02-23T20:11:25.612Z,-0.30
2019-02-23T20:14:29.991Z,-0.30
2019-02-23T20:17:34.472Z,-0.30
2019-02-23T20:20:40.467Z,-0.40
2019-02-23T20:23:45.144Z,-0.40
2019-02-23T20:26:55.436Z,-0.40
2019-02-23T20:29:55.690Z,-0.50
2019-02-23T20:33:00.118Z,-0.50
2019-02-23T20:36:04.649Z,-0.50
2019-02-23T20:39:09.103Z,-0.60
2019-02-23T20:42:14.506Z,-0.60
2019-02-23T20:45:39.931Z,-0.60
2019-02-23T20:48:44.286Z,-0.70
2019-02-23T20:51:49.697Z,-0.70
2019-02-23T20:54:55.397Z,-0.70
2019-02-23T20:58:01.409Z,-0.80
2019-02-23T21:01:06.060Z,-0.80
2019-02-23T21:04:10.608Z,-0.80
2019-02-23T21:07:15.217Z,-0.80
2019-02-23T21:10:19.620Z,-0.80
2019-02-23T21:13:24.048Z,-0.80
2019-02-23T21:16:28.472Z,-0.80
2019-02-23T21:19:32.857Z,-0.80
2019-02-23T21:22:37.261Z,-0.80
2019-02-23T21:25:41.565Z,-0.80
2019-02-23T21:28:45.952Z,-0.80
2019-02-23T21:31:50.179Z,-0.80
2019-02-23T21:34:54.579Z,-0.70
2019-02-23T21:37:58.942Z,-0.70
2019-02-23T21:41:03.341Z,-0.80
2019-02-23T21:44:07.670Z,-0.80
2019-02-23T21:47:12.111Z,-0.80
2019-02-23T21:50:16.665Z,-0.80
2019-02-23T21:53:21.079Z,-0.90
2019-02-23T21:56:25.552Z,-0.90
2019-02-23T21:59:29.992Z,-0.90
2019-02-23T22:02:34.347Z,-1.00
2019-02-23T22:05:38.826Z,-1.00
2019-02-23T22:08:43.224Z,-1.10
2019-02-23T22:11:47.579Z,-1.10
2019-02-23T22:14:51.941Z,-1.10
2019-02-23T22:17:56.342Z,-1.20
2019-02-23T22:21:00.689Z,-1.20
2019-02-23T22:24:05.009Z,-1.20
2019-02-23T22:27:09.309Z,-1.20
2019-02-23T22:30:13.686Z,-1.20
2019-02-23T22:33:18.054Z,-1.30
2019-02-23T22:36:22.458Z,-1.30
2019-02-23T22:39:26.792Z,-1.30
2019-02-23T22:42:31.083Z,-1.30
2019-02-23T22:45:35.444Z,-1.30
2019-02-23T22:48:39.816Z,-1.40
2019-02-23T22:51:44.195Z,-1.40
2019-02-23T22:54:48.577Z,-1.40
2019-02-23T22:57:52.928Z,-1.40
2019-02-23T23:01:00.420Z,-1.50
2019-02-23T23:04:04.899Z,-1.50
2019-02-23T23:07:09.260Z,-1.50
2019-02-23T23:10:13.544Z,-1.50
2019-02-23T23:13:17.966Z,-1.50
2019-02-23T23:16:22.312Z,-1.50
2019-02-23T23:19:26.701Z,-1.50
2019-02-23T23:22:30.990Z,-1.50
2019-02-23T23:25:35.371Z,-1.40
2019-02-23T23:28:39.718Z,-1.40
2019-02-23T23:31:44.097Z,-1.40
2019-02-23T23:34:48.586Z,-1.30
2019-02-23T23:37:52.987Z,-1.30
2019-02-23T23:40:57.329Z,-1.30
2019-02-23T23:44:01.644Z,-1.20
2019-02-23T23:47:05.994Z,-1.20
2019-02-23T23:50:10.216Z,-1.10
2019-02-23T23:53:14.482Z,-1.10
2019-02-23T23:56:18.803Z,-1.10
2019-02-23T23:59:23.148Z,-1.00
